Time;durP1;ratioP1;P1;durP2;ratioP2;P2;SDS_P1;SDS_P2;PMS_P1;PMS_P2;Temp;Humidity;BMP_temperature;BMP_pressure;BME280_temperature;BME280_humidity;BME280_pressure;Samples;Min_cycle;Max_cycle;Signal;HPM_P1;HPM_P2
2021/05/07 00:01:28;;;;;;;3.88;0.73;;;9.60;82.10;;;8.04;79.87;95058.22;5022042;28;20450;-71
2021/05/07 00:03:54;;;;;;;4.20;0.95;;;9.60;82.00;;;8.10;79.97;95067.88;5039361;28;20052;-71
2021/05/07 00:06:20;;;;;;;2.35;0.70;;;9.70;82.10;;;8.10;80.13;95055.59;5034634;28;20404;-72
2021/05/07 00:08:45;;;;;;;4.07;0.73;;;9.70;82.10;;;8.12;80.17;95053.59;5045319;28;20037;-71
2021/05/07 00:11:16;;;;;;;1.73;0.77;;;9.70;82.00;;;8.15;80.33;95060.28;5022199;28;20032;-71
2021/05/07 00:13:43;;;;;;;4.47;0.93;;;9.70;81.50;;;8.15;80.13;95060.28;5025467;28;20111;-71
2021/05/07 00:16:08;;;;;;;4.05;0.80;;;9.70;81.90;;;8.18;80.32;95052.00;5033256;28;20036;-70
2021/05/07 00:18:34;;;;;;;1.90;0.77;;;9.70;81.50;;;8.19;79.60;95061.47;5035070;28;20508;-72
2021/05/07 00:21:00;;;;;;;3.00;0.73;;;9.80;81.40;;;8.22;79.93;95046.16;5019412;28;20026;-70
2021/05/07 00:23:26;;;;;;;2.60;0.90;;;9.90;81.00;;;8.22;79.68;95045.34;5015322;28;20693;-71
2021/05/07 00:25:52;;;;;;;4.90;1.02;;;9.80;80.70;;;8.22;79.77;95056.66;5032821;28;20033;-71
2021/05/07 00:28:19;;;;;;;4.38;0.90;;;9.70;80.80;;;8.21;79.69;95057.66;5014395;28;20040;-71
2021/05/07 00:30:45;;;;;;;4.10;0.70;;;9.70;80.50;;;8.23;79.26;95047.78;5029256;28;20495;-71
2021/05/07 00:33:11;;;;;;;1.52;0.47;;;9.80;80.10;;;8.23;79.10;95066.13;5011004;28;20045;-71
2021/05/07 00:35:36;;;;;;;2.88;0.70;;;9.70;80.00;;;8.23;79.10;95060.06;5038356;28;20028;-71
2021/05/07 00:38:03;;;;;;;4.55;0.60;;;9.70;80.20;;;8.24;78.69;95061.69;5043459;28;20079;-70
2021/05/07 00:40:30;;;;;;;1.25;0.40;;;9.90;80.00;;;8.24;78.81;95066.91;5029320;28;20140;-70
2021/05/07 00:42:55;;;;;;;2.42;0.40;;;9.80;79.20;;;8.23;78.37;95060.06;5030718;28;20051;-71
2021/05/07 00:45:21;;;;;;;1.25;0.50;;;9.70;78.50;;;8.23;78.08;95062.69;5030118;28;20116;-71
2021/05/07 00:48:06;;;;;;;2.35;0.50;;;9.70;78.50;;;8.24;77.69;95064.31;5039744;28;20136;-71
2021/05/07 00:50:37;;;;;;;3.10;0.52;;;9.80;78.00;;;8.24;77.45;95064.31;5028689;28;20393;-71
2021/05/07 00:53:03;;;;;;;3.22;0.43;;;9.80;77.40;;;8.22;76.94;95069.75;5022133;28;20393;-72
2021/05/07 00:55:30;;;;;;;1.85;0.50;;;9.70;76.80;;;8.24;77.20;95070.34;5012110;28;20135;-71
2021/05/07 00:57:56;;;;;;;1.10;0.32;;;9.80;77.20;;;8.23;76.89;95065.31;5020771;28;20576;-71
2021/05/07 01:00:23;;;;;;;0.73;0.30;;;9.80;77.20;;;8.24;76.69;95056.44;4980579;28;20124;-71
2021/05/07 01:02:49;;;;;;;1.70;0.50;;;9.80;76.80;;;8.24;76.86;95072.16;5027829;28;20570;-71
2021/05/07 01:05:14;;;;;;;1.67;0.60;;;9.80;77.10;;;8.24;76.89;95065.09;5041485;28;20037;-71
2021/05/07 01:07:40;;;;;;;0.60;0.30;;;9.80;78.20;;;8.24;77.21;95064.31;5043557;28;20094;-72
2021/05/07 01:10:09;;;;;;;2.78;0.50;;;9.70;77.50;;;8.23;77.01;95062.69;5011865;28;20124;-71
2021/05/07 01:12:40;;;;;;;0.50;0.30;;;9.80;77.50;;;8.20;76.74;95063.91;5041673;28;20453;-72
2021/05/07 01:15:13;;;;;;;2.50;0.40;;;9.70;77.40;;;8.19;77.43;95082.44;5006208;28;20030;-71
2021/05/07 01:17:53;;;;;;;1.77;0.30;;;9.70;77.90;;;8.17;77.53;95084.44;5011722;28;20041;-71
2021/05/07 01:20:26;;;;;;;1.90;0.30;;;9.70;78.20;;;8.15;77.28;95087.25;5011734;28;20033;-72
2021/05/07 01:22:56;;;;;;;1.70;0.30;;;9.70;78.20;;;8.15;77.21;95089.09;5057292;28;20048;-71
2021/05/07 01:25:28;;;;;;;0.57;0.35;;;9.70;78.50;;;8.11;77.92;95080.78;4992583;28;20067;-71
2021/05/07 01:27:56;;;;;;;;;;;9.70;79.00;;;8.12;77.99;95084.22;5013610;28;20040;-70
2021/05/07 01:30:32;;;;;;;0.70;0.30;;;9.70;79.40;;;8.10;78.07;95094.09;5031313;28;19916;-72
2021/05/07 01:32:58;;;;;;;2.30;0.57;;;9.70;79.20;;;8.08;77.51;95094.28;5028222;28;20047;-71
2021/05/07 01:35:27;;;;;;;2.58;0.60;;;9.70;80.00;;;8.09;77.69;95093.28;5040614;28;20404;-72
2021/05/07 01:37:55;;;;;;;2.10;0.77;;;9.70;79.70;;;8.07;78.59;95095.28;5036897;28;20488;-71
2021/05/07 01:40:26;;;;;;;2.53;0.50;;;9.70;80.60;;;8.04;78.22;95094.88;5031130;28;20033;-71
2021/05/07 01:42:53;;;;;;;1.70;0.30;;;9.60;80.30;;;8.03;78.20;95086.22;5026906;28;20119;-71
2021/05/07 01:45:22;;;;;;;1.67;0.43;;;9.60;81.10;;;8.04;78.66;95090.44;5026588;28;20041;-71
2021/05/07 01:47:49;;;;;;;1.17;0.50;;;9.60;80.90;;;8.03;78.58;95085.41;5015226;28;20047;-71
2021/05/07 01:50:20;;;;;;;2.30;0.65;;;9.60;81.20;;;8.01;79.58;95096.09;5031378;28;20037;-71
2021/05/07 01:52:46;;;;;;;1.77;0.60;;;9.60;80.80;;;8.03;78.56;95098.50;5037319;28;20129;-71
2021/05/07 01:55:15;;;;;;;1.67;0.40;;;9.70;81.20;;;7.98;79.18;95099.91;5030477;28;20090;-71
2021/05/07 01:57:41;;;;;;;2.80;0.40;;;9.50;80.90;;;7.98;78.72;95102.53;5019402;28;20583;-71
2021/05/07 02:00:13;;;;;;;0.65;0.40;;;9.50;81.60;;;7.98;80.02;95101.72;5028838;28;20033;-70
2021/05/07 02:02:39;;;;;;;3.13;0.47;;;9.50;81.70;;;7.95;79.30;95097.69;5013435;28;20060;-72
2021/05/07 02:05:05;;;;;;;1.63;0.60;;;9.40;81.50;;;7.95;78.99;95107.34;5031523;28;20037;-71
2021/05/07 02:07:31;;;;;;;1.13;0.50;;;9.50;81.60;;;7.96;79.51;95101.13;5018072;28;20036;-71
2021/05/07 02:09:57;;;;;;;2.67;0.68;;;9.60;81.70;;;7.95;79.07;95107.34;5049753;28;20033;-71
2021/05/07 02:12:23;;;;;;;2.05;0.50;;;9.60;81.80;;;7.92;79.61;95107.72;5020491;28;20029;-71
2021/05/07 02:14:49;;;;;;;5.15;0.80;;;9.50;81.50;;;7.92;79.17;95105.09;5038758;28;20037;-71
2021/05/07 02:17:14;;;;;;;2.45;0.57;;;9.60;81.60;;;7.89;79.55;95108.94;5013474;28;20057;-71
2021/05/07 02:19:40;;;;;;;2.85;1.15;;;9.50;81.80;;;7.88;79.98;95115.16;5028231;28;20033;-72
2021/05/07 02:22:06;;;;;;;2.25;0.60;;;9.50;82.20;;;7.87;79.27;95116.16;5013173;28;20495;-71
2021/05/07 02:24:32;;;;;;;3.80;0.82;;;9.50;82.00;;;7.87;79.68;95108.31;5046536;28;20086;-71
2021/05/07 02:26:57;;;;;;;3.33;0.57;;;9.50;82.20;;;7.88;79.78;95112.56;5032353;28;20525;-72
2021/05/07 02:29:23;;;;;;;3.53;0.75;;;9.50;82.00;;;7.88;80.02;95116.97;5061702;28;20068;-71
2021/05/07 02:31:49;;;;;;;2.35;0.70;;;9.50;81.80;;;7.87;80.19;95120.59;5035020;28;20052;-71
2021/05/07 02:34:15;;;;;;;1.10;0.50;;;9.40;81.90;;;7.88;79.78;95123.03;5029335;28;20720;-71
2021/05/07 02:36:41;;;;;;;2.58;0.75;;;9.50;82.00;;;7.87;79.81;95116.16;5012640;28;20497;-70
2021/05/07 02:39:07;;;;;;;2.17;0.60;;;9.60;81.90;;;7.88;79.96;95115.16;5025496;28;20043;-71
2021/05/07 02:41:36;;;;;;;1.98;0.52;;;9.50;81.90;;;7.88;79.57;95117.78;5016539;28;20504;-71
2021/05/07 02:44:05;;;;;;;3.13;0.68;;;9.50;81.60;;;7.88;80.52;95117.78;5018235;28;21858;-71
2021/05/07 02:46:34;;;;;;;1.90;0.90;;;9.50;81.70;;;7.89;80.48;95106.31;5022726;28;20029;-71
2021/05/07 02:49:01;;;;;;;2.80;0.60;;;9.60;81.50;;;7.90;80.18;95114.97;5033174;28;20029;-71
2021/05/07 02:51:27;;;;;;;2.90;0.90;;;9.60;81.70;;;7.90;80.11;95123.63;5037006;28;20029;-71
2021/05/07 02:53:53;;;;;;;2.10;0.60;;;9.60;81.30;;;7.89;79.90;95124.63;5020521;28;20045;-71
2021/05/07 02:56:19;;;;;;;3.53;0.77;;;9.60;81.40;;;7.88;79.91;95123.03;5045600;28;20075;-71
2021/05/07 02:58:45;;;;;;;3.00;0.57;;;9.60;81.60;;;7.90;80.29;95125.44;5046713;28;20041;-71
2021/05/07 03:01:11;;;;;;;4.07;0.57;;;9.60;81.50;;;7.88;79.84;95127.44;5013502;28;20037;-71
2021/05/07 03:03:36;;;;;;;2.05;0.60;;;9.60;81.30;;;7.84;79.86;95121.81;5038460;28;20453;-72
2021/05/07 03:06:02;;;;;;;2.60;0.70;;;9.60;81.20;;;7.83;79.63;95122.00;5057105;28;20060;-71
2021/05/07 03:08:28;;;;;;;4.00;1.10;;;9.60;80.70;;;7.78;79.70;95119.97;5050910;28;20041;-71
2021/05/07 03:10:54;;;;;;;2.60;1.00;;;9.50;80.80;;;7.75;79.81;95133.47;5052059;28;20044;-71
2021/05/07 03:13:19;;;;;;;3.60;1.00;;;9.50;81.00;;;7.72;79.95;95128.63;5038664;28;20115;-71
2021/05/07 03:15:45;;;;;;;2.15;0.50;;;9.50;81.30;;;7.69;79.84;95128.97;5051316;28;20052;-71
2021/05/07 03:18:19;;;;;;;4.43;0.70;;;9.40;81.00;;;7.68;80.93;95122.13;5055560;28;20412;-72
2021/05/07 03:20:47;;;;;;;2.63;0.77;;;9.30;81.30;;;7.64;80.46;95126.16;5052533;28;20420;-72
2021/05/07 03:23:13;;;;;;;2.80;0.60;;;9.40;81.20;;;7.65;80.14;95130.38;5058872;28;20033;-72
2021/05/07 03:25:39;;;;;;;1.70;0.50;;;9.30;81.00;;;7.63;79.65;95135.00;5002236;28;20029;-72
2021/05/07 03:28:05;;;;;;;3.33;0.65;;;9.40;81.20;;;7.62;79.77;95138.63;5031160;28;20504;-71
2021/05/07 03:30:33;;;;;;;3.17;0.70;;;9.30;81.00;;;7.60;79.74;95140.63;5036457;28;20116;-72
2021/05/07 03:33:00;;;;;;;2.92;0.70;;;9.40;81.20;;;7.60;80.24;95143.25;4983504;28;20033;-71
2021/05/07 03:35:26;;;;;;;1.80;0.60;;;9.40;81.40;;;7.60;80.19;95143.25;5018703;28;20645;-71
2021/05/07 03:37:52;;;;;;;2.05;0.63;;;9.40;81.40;;;7.60;79.90;95146.66;5010455;28;20064;-71
2021/05/07 03:40:17;;;;;;;4.30;0.60;;;9.40;80.80;;;7.60;79.74;95156.31;5028920;28;20041;-74
2021/05/07 03:42:44;;;;;;;2.25;0.52;;;9.30;80.70;;;7.60;80.45;95166.78;5023215;28;20508;-72
2021/05/07 03:45:12;;;;;;;3.90;0.68;;;9.30;80.70;;;7.60;80.02;95174.63;5043504;28;20127;-66
2021/05/07 03:47:39;;;;;;;1.55;0.50;;;9.30;80.90;;;7.61;80.02;95171.03;5027986;28;20242;-69
2021/05/07 03:50:05;;;;;;;2.80;0.60;;;9.40;80.90;;;7.61;79.58;95178.88;5022238;28;20532;-67
2021/05/07 03:52:31;;;;;;;2.15;0.65;;;9.40;80.60;;;7.60;80.15;95182.50;5037177;28;20512;-68
2021/05/07 03:54:56;;;;;;;1.92;0.50;;;9.30;80.60;;;7.58;79.35;95174.03;5047817;28;20029;-71
2021/05/07 03:57:24;;;;;;;3.40;0.80;;;9.20;80.20;;;7.59;79.89;95180.88;5047111;28;20040;-71
2021/05/07 03:59:50;;;;;;;3.00;0.80;;;9.30;80.90;;;7.58;79.46;95176.66;5048822;28;20128;-71
2021/05/07 04:02:15;;;;;;;3.95;0.70;;;9.20;80.30;;;7.57;79.59;95175.03;5032420;28;20040;-71
2021/05/07 04:04:43;;;;;;;2.88;0.50;;;9.20;80.90;;;7.57;79.79;95181.06;5032136;28;20037;-72
2021/05/07 04:07:09;;;;;;;3.20;0.80;;;9.20;80.80;;;7.56;79.87;95182.06;5032233;28;20454;-72
2021/05/07 04:09:39;;;;;;;3.80;0.80;;;9.20;80.90;;;7.57;79.39;95181.06;5012255;28;20041;-72
2021/05/07 04:12:15;;;;;;;1.40;0.65;;;9.20;81.10;;;7.56;79.83;95181.28;5033803;28;20056;-71
2021/05/07 04:14:41;;;;;;;3.13;0.80;;;9.30;81.30;;;7.55;79.66;95187.50;5056943;28;20037;-71
2021/05/07 04:17:06;;;;;;;2.47;0.80;;;9.30;81.30;;;7.57;80.21;95193.34;5014831;28;20772;-71
2021/05/07 04:19:32;;;;;;;1.83;0.70;;;9.30;81.70;;;7.58;80.78;95190.53;5015445;28;20444;-71
2021/05/07 04:21:58;;;;;;;3.45;0.93;;;9.40;81.80;;;7.55;80.48;95190.94;5031697;28;20588;-71
2021/05/07 04:24:24;;;;;;;4.15;1.02;;;9.30;81.20;;;7.57;80.03;95188.13;5016013;28;20461;-71
2021/05/07 04:26:50;;;;;;;3.90;0.95;;;9.30;81.40;;;7.55;80.58;95195.34;5014326;28;20056;-71
2021/05/07 04:29:15;;;;;;;2.60;0.80;;;9.30;82.10;;;7.52;80.27;95188.69;5031626;28;20567;-71
2021/05/07 04:31:41;;;;;;;2.35;0.93;;;9.20;82.30;;;7.51;80.17;95194.94;5031118;28;20036;-72
2021/05/07 04:34:07;;;;;;;3.13;0.80;;;9.20;82.30;;;7.51;80.71;95201.97;5030908;28;20072;-72
2021/05/07 04:36:33;;;;;;;4.70;0.90;;;9.20;82.60;;;7.49;80.16;95206.59;5014004;28;20060;-72
2021/05/07 04:38:59;;;;;;;3.83;0.70;;;9.10;82.70;;;7.49;80.12;95202.16;5048574;28;20040;-71
2021/05/07 04:41:25;;;;;;;1.23;0.50;;;9.20;82.00;;;7.47;80.84;95196.31;5031619;28;20060;-71
2021/05/07 04:43:51;;;;;;;3.80;0.90;;;9.20;82.60;;;7.46;80.53;95196.47;5017583;28;20033;-71
2021/05/07 04:46:17;;;;;;;2.50;0.63;;;9.10;81.80;;;7.43;80.74;95202.09;5035024;28;20120;-71
2021/05/07 04:48:43;;;;;;;3.10;0.70;;;9.00;82.40;;;7.37;80.94;95220.19;5014664;28;20408;-71
2021/05/07 04:51:09;;;;;;;1.77;0.80;;;8.90;82.70;;;7.33;80.90;95213.72;5014265;28;20479;-71
2021/05/07 04:53:34;;;;;;;1.65;0.55;;;8.80;82.80;;;7.30;80.97;95223.75;5014579;28;20074;-70
2021/05/07 04:56:00;;;;;;;2.03;0.70;;;8.80;82.90;;;7.28;81.45;95233.59;5047818;28;20249;-68
2021/05/07 04:58:26;;;;;;;3.88;0.63;;;8.80;83.50;;;7.26;80.33;95228.56;5013958;28;20075;-64
2021/05/07 05:00:51;;;;;;;2.42;0.77;;;8.80;83.10;;;7.24;81.08;95220.09;5030566;28;20102;-64
2021/05/07 05:03:18;;;;;;;1.52;0.50;;;8.80;83.20;;;7.24;81.30;95224.50;5030764;28;20353;-68
2021/05/07 05:05:43;;;;;;;1.90;0.63;;;8.80;83.20;;;7.24;81.43;95225.34;5030804;28;20025;-67
2021/05/07 05:08:09;;;;;;;1.02;0.40;;;8.80;83.40;;;7.18;81.26;95226.06;5013214;28;20044;-71
2021/05/07 05:10:35;;;;;;;1.83;0.47;;;8.70;82.80;;;7.14;81.29;95230.06;5013485;28;20029;-69
2021/05/07 05:13:00;;;;;;;2.25;0.40;;;8.60;83.50;;;7.13;81.27;95245.94;5030572;28;20033;-70
2021/05/07 05:15:26;;;;;;;1.73;0.60;;;8.60;83.50;;;7.11;80.81;95246.13;5039910;28;20485;-64
2021/05/07 05:17:52;;;;;;;1.77;0.68;;;8.60;83.80;;;7.09;80.87;95248.13;5047825;28;20033;-66
2021/05/07 05:20:18;;;;;;;1.02;0.50;;;8.60;83.90;;;7.09;81.95;95250.75;5029955;28;20040;-66
2021/05/07 05:22:45;;;;;;;1.77;0.65;;;8.70;83.80;;;7.09;81.79;95263.00;5030582;28;20037;-65
2021/05/07 05:25:11;;;;;;;1.33;0.77;;;8.70;83.60;;;7.08;81.76;95267.44;5048061;28;20043;-65
2021/05/07 05:27:37;;;;;;;9.10;5.25;;;8.70;83.50;;;7.08;81.97;95267.44;5028959;28;20029;-70
2021/05/07 05:30:04;;;;;;;3.53;2.05;;;8.70;83.60;;;7.11;81.64;95272.28;5033198;28;20043;-69
2021/05/07 05:32:30;;;;;;;1.92;0.65;;;8.70;84.10;;;7.10;81.47;95286.38;5027820;28;20037;-70
2021/05/07 05:34:56;;;;;;;1.77;0.65;;;8.80;84.10;;;7.11;81.98;95293.22;5011139;28;20101;-65
2021/05/07 05:37:21;;;;;;;4.70;1.67;;;8.70;84.00;;;7.13;81.78;95285.97;5029626;28;20084;-70
2021/05/07 05:39:47;;;;;;;4.15;1.90;;;8.90;84.00;;;7.15;82.28;95294.44;5021479;28;20125;-68
2021/05/07 05:42:13;;;;;;;2.38;1.20;;;8.90;83.90;;;7.13;81.96;95293.81;5028471;28;20186;-70
2021/05/07 05:44:39;;;;;;;2.03;0.50;;;8.80;83.80;;;7.14;82.20;95292.81;5044555;28;20060;-68
2021/05/07 05:47:06;;;;;;;1.48;0.60;;;8.80;83.80;;;7.14;81.47;95292.81;5048657;28;20028;-71
2021/05/07 05:49:32;;;;;;;7.82;5.18;;;8.90;83.80;;;7.15;82.04;95288.41;5023381;28;20087;-69
2021/05/07 05:51:57;;;;;;;6.55;3.35;;;8.90;83.80;;;7.16;81.70;95301.28;5046438;28;20049;-67
2021/05/07 05:54:23;;;;;;;3.28;1.67;;;8.90;83.60;;;7.17;82.23;95299.50;5029166;28;20032;-69
2021/05/07 05:56:49;;;;;;;2.53;0.68;;;8.90;83.70;;;7.19;82.60;95306.16;5007212;28;20049;-70
2021/05/07 05:59:15;;;;;;;3.13;1.17;;;9.00;82.90;;;7.23;82.48;95307.38;5022426;28;20132;-69
2021/05/07 06:01:41;;;;;;;2.92;1.73;;;9.10;82.80;;;7.28;81.83;95310.28;5014999;28;20045;-69
2021/05/07 06:04:06;;;;;;;4.63;1.73;;;9.10;83.20;;;7.31;82.49;95315.13;5043745;28;20087;-71
2021/05/07 06:06:32;;;;;;;4.72;2.67;;;9.20;83.20;;;7.35;82.21;95315.56;5030309;28;20060;-71
2021/05/07 06:08:58;;;;;;;5.45;3.47;;;9.20;83.10;;;7.37;81.92;95324.84;5044627;28;20033;-70
2021/05/07 06:11:23;;;;;;;5.28;3.00;;;9.20;83.10;;;7.40;82.53;95322.84;5010605;28;20040;-71
2021/05/07 06:13:49;;;;;;;5.07;2.90;;;9.10;83.30;;;7.43;82.49;95327.69;5012976;28;20033;-72
2021/05/07 06:16:15;;;;;;;3.00;2.08;;;9.30;82.90;;;7.47;82.61;95328.91;5012171;28;20033;-73
2021/05/07 06:18:41;;;;;;;2.63;0.70;;;9.30;83.10;;;7.45;82.35;95331.72;5045570;28;20388;-70
2021/05/07 06:21:06;;;;;;;3.53;1.40;;;9.20;82.60;;;7.47;81.77;95334.16;5028951;28;20532;-70
2021/05/07 06:23:32;;;;;;;4.07;1.48;;;9.20;83.00;;;7.47;82.24;95328.91;5026342;28;20037;-69
2021/05/07 06:25:58;;;;;;;1.05;0.50;;;9.20;83.10;;;7.46;82.32;95324.69;5026877;28;20311;-69
2021/05/07 06:28:24;;;;;;;1.80;0.80;;;9.20;82.80;;;7.47;82.30;95316.69;5045461;28;20056;-71
2021/05/07 06:30:49;;;;;;;1.45;0.75;;;9.20;82.30;;;7.49;81.41;95306.81;5044724;28;20061;-71
2021/05/07 06:33:15;;;;;;;2.13;0.80;;;9.30;82.20;;;7.53;82.06;95313.31;5026806;28;20527;-71
2021/05/07 06:35:41;;;;;;;3.10;1.00;;;9.40;82.50;;;7.57;82.31;95313.72;5054026;28;20109;-72
2021/05/07 06:38:10;;;;;;;1.92;1.02;;;9.50;82.40;;;7.59;82.35;95309.09;5011486;28;20139;-69
2021/05/07 06:40:36;;;;;;;1.83;1.10;;;9.40;82.50;;;7.61;82.01;95299.25;5028023;28;20033;-69
2021/05/07 06:43:02;;;;;;;2.60;1.58;;;9.60;82.40;;;7.66;82.19;95296.88;5024492;28;20075;-69
2021/05/07 06:45:28;;;;;;;2.25;1.40;;;9.60;81.80;;;7.72;82.34;95303.19;5035431;28;20128;-69
2021/05/07 06:47:54;;;;;;;5.30;3.75;;;9.70;81.80;;;7.75;82.28;95316.69;5027414;28;20098;-69
2021/05/07 06:50:20;;;;;;;5.82;4.20;;;9.80;82.30;;;7.79;81.99;95311.88;5044176;28;20048;-68
2021/05/07 06:52:46;;;;;;;2.85;2.40;;;9.80;81.50;;;7.79;81.65;95312.69;5041674;28;20037;-70
2021/05/07 06:55:12;;;;;;;9.45;7.38;;;9.80;81.00;;;7.80;81.80;95314.31;5029192;28;20471;-71
2021/05/07 06:57:39;;;;;;;5.93;4.43;;;9.80;81.00;;;7.81;81.70;95315.91;5027713;28;20048;-72
2021/05/07 07:00:06;;;;;;;3.75;2.60;;;9.70;81.20;;;7.82;81.89;95321.97;5044875;28;20021;-71
2021/05/07 07:02:32;;;;;;;6.13;3.28;;;9.60;81.10;;;7.80;81.28;95314.31;5028908;28;20037;-70
2021/05/07 07:04:58;;;;;;;4.88;3.60;;;9.80;81.50;;;7.82;81.54;95314.91;5029103;28;20033;-69
2021/05/07 07:07:26;;;;;;;3.22;1.77;;;9.80;81.10;;;7.80;81.51;95316.91;5008332;28;20064;-70
2021/05/07 07:09:51;;;;;;;3.42;2.15;;;9.60;81.30;;;7.77;81.55;95314.69;5009241;28;20448;-71
2021/05/07 07:12:17;;;;;;;2.13;1.65;;;9.80;81.00;;;7.78;81.55;95316.31;5025232;28;20036;-70
2021/05/07 07:14:43;;;;;;;3.15;2.13;;;9.70;80.90;;;7.79;81.90;95311.88;5016653;28;20040;-70
2021/05/07 07:17:09;;;;;;;7.40;5.25;;;9.80;81.00;;;7.82;81.72;95328.00;5014929;28;20037;-71
2021/05/07 07:19:35;;;;;;;2.63;2.17;;;9.80;80.80;;;7.82;81.57;95338.47;4998873;28;20035;-70
2021/05/07 07:22:04;;;;;;;2.08;1.70;;;9.80;80.70;;;7.80;81.59;95339.66;5049648;28;20037;-70
2021/05/07 07:24:30;;;;;;;1.85;1.30;;;9.60;80.70;;;7.74;81.06;95346.47;5017088;28;20096;-70
2021/05/07 07:26:56;;;;;;;3.28;1.17;;;9.50;80.10;;;7.71;80.38;95336.41;5030627;28;20094;-69
2021/05/07 07:29:22;;;;;;;1.48;1.10;;;9.50;80.00;;;7.66;80.72;95328.28;5015781;28;20036;-70
2021/05/07 07:31:48;;;;;;;2.72;1.33;;;9.60;80.10;;;7.66;80.34;95336.94;5017903;28;20068;-72
2021/05/07 07:34:14;;;;;;;1.85;0.98;;;9.60;80.10;;;7.64;80.89;95343.38;5032023;28;20106;-70
2021/05/07 07:36:39;;;;;;;1.05;0.80;;;9.60;80.00;;;7.55;80.76;95349.75;5016142;28;20497;-70
2021/05/07 07:39:05;;;;;;;0.80;0.60;;;9.20;79.70;;;7.50;80.97;95352.13;5031691;28;20053;-68
2021/05/07 07:41:31;;;;;;;0.60;0.30;;;9.40;79.80;;;7.43;80.33;95365.13;5031624;28;20073;-68
2021/05/07 07:43:57;;;;;;;0.47;0.30;;;9.10;78.30;;;7.36;80.22;95375.53;5012037;28;20052;-68
2021/05/07 07:46:23;;;;;;;0.38;0.22;;;9.00;78.90;;;7.31;80.48;95380.53;5034377;28;20037;-69
2021/05/07 07:48:48;;;;;;;0.40;0.20;;;9.10;79.10;;;7.30;80.08;95383.31;5031895;28;20032;-69
2021/05/07 07:51:14;;;;;;;3.42;2.25;;;9.10;77.80;;;7.29;79.24;95381.72;5047600;28;20045;-69
2021/05/07 07:53:40;;;;;;;3.30;1.95;;;9.10;78.40;;;7.27;79.56;95387.13;5027256;28;20505;-70
2021/05/07 07:56:06;;;;;;;2.65;1.52;;;9.10;78.10;;;7.29;79.18;95395.59;5013210;28;20084;-69
2021/05/07 07:58:32;;;;;;;1.35;0.50;;;9.30;78.50;;;7.32;79.51;95403.06;5039297;28;20037;-69
2021/05/07 08:00:58;;;;;;;0.95;0.30;;;9.20;78.00;;;7.32;79.39;95408.28;5047641;28;20033;-68
2021/05/07 08:03:23;;;;;;;2.58;0.30;;;9.20;78.70;;;7.28;79.62;95404.44;5049347;28;20026;-70
2021/05/07 08:05:49;;;;;;;0.60;0.20;;;9.10;78.60;;;7.24;79.02;95411.03;5049253;28;20084;-70
2021/05/07 08:08:15;;;;;;;0.28;0.20;;;8.90;78.20;;;7.19;79.18;95416.00;5029036;28;20040;-71
2021/05/07 08:10:41;;;;;;;0.30;0.20;;;8.80;77.60;;;7.11;78.06;95423.97;5022143;28;20118;-69
2021/05/07 08:13:06;;;;;;;0.68;0.20;;;8.60;77.10;;;7.01;77.95;95431.25;5030104;28;20045;-68
2021/05/07 08:15:32;;;;;;;0.25;0.20;;;8.70;77.90;;;6.99;78.60;95428.03;5030409;28;20033;-69
2021/05/07 08:17:58;;;;;;;1.08;0.60;;;8.80;77.70;;;6.96;78.36;95438.84;5028427;28;20105;-69
2021/05/07 08:20:24;;;;;;;2.58;1.45;;;8.50;76.80;;;6.92;78.59;95435.00;5033973;28;20025;-66
2021/05/07 08:22:50;;;;;;;3.03;1.55;;;8.60;77.50;;;6.93;78.46;95447.06;5047418;28;20124;-68
2021/05/07 08:25:16;;;;;;;1.25;0.80;;;8.70;77.70;;;6.99;78.77;95446.31;5031638;28;20112;-68
2021/05/07 08:27:42;;;;;;;0.80;0.40;;;8.90;77.90;;;7.05;78.50;95441.19;5047104;28;20041;-69
2021/05/07 08:30:11;;;;;;;1.63;0.57;;;9.10;76.00;;;7.19;78.45;95449.19;5013302;28;20136;-69
2021/05/07 08:32:37;;;;;;;1.90;0.45;;;9.30;76.70;;;7.38;78.20;95445.97;5014087;28;20068;-69
2021/05/07 08:35:03;;;;;;;1.42;0.57;;;9.90;76.20;;;7.56;78.28;95456.84;5014589;28;20075;-69
2021/05/07 08:37:29;;;;;;;0.63;0.30;;;9.90;73.80;;;7.74;78.13;95456.44;5031235;28;20040;-70
2021/05/07 08:39:56;;;;;;;0.93;0.30;;;10.10;73.00;;;7.88;77.53;95476.47;5013665;28;20496;-70
2021/05/07 08:42:22;;;;;;;0.50;0.20;;;10.20;73.80;;;7.93;77.44;95462.84;5030330;28;20036;-69
2021/05/07 08:44:49;;;;;;;0.20;0.20;;;9.90;73.00;;;8.00;77.16;95476.81;5019156;28;20025;-69
2021/05/07 08:47:21;;;;;;;1.50;0.80;;;10.10;74.30;;;8.08;75.26;95478.47;5030802;28;20037;-69
2021/05/07 08:49:50;;;;;;;0.60;0.30;;;10.00;72.70;;;8.11;75.86;95478.09;5030210;28;20028;-70
2021/05/07 08:52:19;;;;;;;0.38;0.20;;;10.10;73.50;;;8.20;75.98;95487.47;5030326;28;20037;-68
2021/05/07 08:54:45;;;;;;;0.30;0.20;;;10.30;73.90;;;8.25;75.90;95503.41;5014812;28;20071;-69
2021/05/07 08:57:13;;;;;;;0.30;0.30;;;10.10;72.70;;;8.20;75.37;95497.94;5012900;28;20048;-70
2021/05/07 08:59:39;;;;;;;0.90;0.40;;;10.10;73.20;;;8.26;75.96;95499.78;5029228;28;20480;-66
2021/05/07 09:02:05;;;;;;;0.50;0.30;;;10.20;72.60;;;8.26;75.09;95490.13;5047059;28;20036;-67
2021/05/07 09:04:31;;;;;;;0.85;0.45;;;10.40;70.40;;;8.32;74.67;95491.16;5048533;28;20487;-68
2021/05/07 09:06:56;;;;;;;4.20;2.72;;;10.50;70.10;;;8.47;75.15;95498.97;5029949;28;20133;-68
2021/05/07 09:09:30;;;;;;;1.60;1.10;;;10.90;70.30;;;8.69;74.12;95512.84;5030511;28;20115;-69
2021/05/07 09:11:57;;;;;;;0.30;0.30;;;11.40;69.10;;;9.02;74.86;95498.13;5030217;28;20519;-68
2021/05/07 09:14:24;;;;;;;1.25;0.20;;;12.10;67.80;;;9.38;74.32;95507.59;5030343;28;20037;-69
2021/05/07 09:16:58;;;;;;;0.60;0.30;;;12.70;65.00;;;9.66;72.54;95503.03;5029949;28;20039;-68
2021/05/07 09:19:28;;;;;;;0.30;0.17;;;12.60;64.90;;;9.80;72.04;95506.50;5030146;28;20037;-69
2021/05/07 09:21:54;;;;;;;1.67;0.80;;;12.30;62.80;;;9.85;73.39;95508.53;4997086;28;20025;-67
2021/05/07 09:24:34;;;;;;;0.38;0.25;;;12.00;64.50;;;9.89;69.80;95515.81;5047724;28;20033;-69
2021/05/07 09:27:00;;;;;;;0.20;0.10;;;12.20;64.20;;;9.91;71.13;95516.44;5029596;28;20107;-70
2021/05/07 09:29:29;;;;;;;0.40;0.30;;;12.10;64.80;;;9.98;71.29;95529.59;5030053;28;20572;-69
2021/05/07 09:31:55;;;;;;;0.35;0.30;;;12.40;63.10;;;10.07;72.10;95529.19;5013397;28;20033;-71
2021/05/07 09:34:21;;;;;;;0.75;0.50;;;12.60;64.80;;;10.22;71.23;95536.94;5028729;28;20036;-71
2021/05/07 09:36:48;;;;;;;0.47;0.40;;;12.60;65.00;;;10.28;71.54;95530.88;5030177;28;20037;-71
2021/05/07 09:39:15;;;;;;;0.45;0.35;;;12.50;63.90;;;10.32;71.88;95529.47;5029517;28;20064;-71
2021/05/07 09:41:43;;;;;;;0.38;0.30;;;12.50;65.10;;;10.45;69.59;95533.13;5013733;28;20033;-69
2021/05/07 09:44:17;;;;;;;0.80;0.50;;;12.50;63.50;;;10.45;68.88;95538.38;5029376;28;20029;-72
2021/05/07 09:46:44;;;;;;;1.85;1.13;;;12.50;63.20;;;10.47;69.64;95549.50;5030981;28;20067;-69
2021/05/07 09:49:09;;;;;;;0.63;0.60;;;12.50;62.50;;;10.40;70.12;95560.81;5045913;28;20033;-70
2021/05/07 09:51:40;;;;;;;0.93;0.70;;;12.10;63.70;;;10.33;68.33;95565.25;5009395;28;20052;-72
2021/05/07 09:54:08;;;;;;;1.05;0.50;;;12.10;64.30;;;10.17;69.06;95560.34;5002989;28;20040;-74
2021/05/07 09:56:34;;;;;;;0.80;0.60;;;11.70;64.60;;;9.99;69.38;95574.06;5030516;28;20453;-71
2021/05/07 09:59:01;;;;;;;2.97;1.70;;;11.50;66.20;;;9.80;68.79;95580.88;4995815;28;20041;-72
2021/05/07 10:01:26;;;;;;;1.42;1.02;;;11.20;66.80;;;9.64;69.70;95585.63;5028275;28;20033;-70
2021/05/07 10:03:55;;;;;;;1.17;0.60;;;11.00;67.40;;;9.46;68.49;95599.28;5010048;28;20109;-68
2021/05/07 10:06:22;;;;;;;1.33;0.70;;;10.90;66.80;;;9.25;70.00;95607.22;4984383;28;20095;-70
2021/05/07 10:08:48;;;;;;;0.93;0.70;;;10.60;68.20;;;9.07;69.75;95616.41;5030149;28;20029;-72
2021/05/07 10:11:14;;;;;;;1.20;0.70;;;10.40;70.70;;;9.02;69.91;95617.97;5029370;28;20061;-71
2021/05/07 10:13:40;;;;;;;1.73;1.10;;;10.60;71.10;;;8.88;70.33;95615.28;5015120;28;20116;-70
2021/05/07 10:16:09;;;;;;;0.93;0.70;;;10.30;70.70;;;8.72;70.80;95619.97;5012745;28;20048;-72
2021/05/07 10:18:37;;;;;;;1.42;0.93;;;10.00;71.90;;;8.58;71.05;95627.69;5028909;28;20964;-69
2021/05/07 10:21:11;;;;;;;0.95;0.80;;;10.00;73.00;;;8.51;72.33;95626.84;5029486;28;20036;-74
2021/05/07 10:23:49;;;;;;;1.40;0.98;;;10.00;73.10;;;8.56;72.97;95642.00;5013643;28;20037;-71
2021/05/07 10:26:15;;;;;;;1.83;1.40;;;10.30;73.70;;;8.59;71.86;95634.56;5046626;28;20036;-70
2021/05/07 10:28:46;;;;;;;4.68;1.60;;;10.20;71.70;;;8.63;71.98;95640.28;5029473;28;20123;-70
2021/05/07 10:31:14;;;;;;;2.20;1.60;;;10.40;71.40;;;8.71;71.10;95644.56;5010960;28;20122;-70